Overseas Milos — V7WR8 — position and weather

sailwx.info

Track history (hours):
 
Tides and Currents Weather Stations Pressure Air Temp Water Temp Dewpoint Dewpoint Depression Visibility Wind Speed Wind Dir Waves Ship Positions

Overseas Milos

Last reported at 2014-Dec-02 19:27 UTC. Time now 2014-Dec-21 23:56 UTC.
Position N 29°27' W 094°50'.
Warning: this ship's position is 19 days out of date.

Length 183 m; draft 9.6 m.

Type: Tanker. MMSI: 538004376.

Date/timePositionNaut miles runAvg speedWind from/ knotsBaromVisibWave heightAir tempDewpointWater temp
2014-Dec-02 19:27N 29°27' W 094°50'910.6
2014-Dec-02 18:33N 29°35' W 094°56'10 9.6
2014-Dec-02 17:33N 29°43' W 095°01'6 6.3
2014-Dec-02 16:33N 29°44' W 095°08'4 4.2
2014-Dec-02 15:33N 29°44' W 095°13'0 0.0
2014-Dec-02 14:25N 29°44' W 095°13'0 0.0
2014-Dec-01 21:31N 29°44' W 095°13'0 0.0
2014-Dec-01 20:31N 29°44' W 095°13'0 0.0
2014-Dec-01 19:31N 29°44' W 095°13'0 0.0
2014-Dec-01 18:31N 29°44' W 095°13'0 0.0
2014-Dec-01 17:31N 29°44' W 095°13'0 0.0
2014-Dec-01 16:31N 29°44' W 095°13'0 0.0
2014-Dec-01 15:31N 29°44' W 095°13'0 0.0
2014-Dec-01 14:31N 29°44' W 095°13'0 0.0
2014-Dec-01 13:31N 29°44' W 095°13'0 0.0
2014-Dec-01 12:31N 29°44' W 095°13'0 0.0
2014-Dec-01 11:31N 29°44' W 095°13'0 0.0
2014-Dec-01 10:31N 29°44' W 095°13'0 0.0
2014-Dec-01 09:31N 29°44' W 095°13'0 0.0
2014-Dec-01 08:31N 29°44' W 095°13'0 0.0
2014-Dec-01 07:31N 29°44' W 095°13'0 0.0
2014-Dec-01 06:31N 29°44' W 095°13'0 0.0
2014-Dec-01 05:31N 29°44' W 095°13'0 0.0
2014-Dec-01 04:31N 29°44' W 095°13'0 0.0
2014-Dec-01 03:31N 29°44' W 095°13'0 0.0
2014-Dec-01 02:31N 29°44' W 095°13'0 0.0
2014-Dec-01 01:31N 29°44' W 095°13'0 0.0
2014-Dec-01 00:31N 29°44' W 095°13'0 0.0
2014-Nov-30 23:31N 29°44' W 095°13'0 0.0
2014-Nov-30 22:31N 29°44' W 095°13'0 0.0
2014-Nov-30 21:31N 29°44' W 095°13'0 0.0
2014-Nov-30 20:31N 29°44' W 095°13'0 0.0
2014-Nov-30 19:31N 29°44' W 095°13'0 0.0
2014-Nov-30 18:31N 29°44' W 095°13'0 0.0
2014-Nov-30 17:31N 29°44' W 095°13'0 0.0
2014-Nov-30 16:31N 29°44' W 095°13'0 0.0
2014-Nov-30 15:31N 29°44' W 095°13'0 0.0
2014-Nov-30 14:31N 29°44' W 095°13'0 0.0
2014-Nov-30 13:31N 29°44' W 095°13'0 0.0
2014-Nov-30 12:31N 29°44' W 095°13'0 0.0
2014-Nov-30 11:31N 29°44' W 095°13'0 0.0
2014-Nov-30 10:31N 29°44' W 095°13'0 0.0
2014-Nov-30 09:31N 29°44' W 095°13'0 0.0
2014-Nov-30 08:31N 29°44' W 095°13'0 0.0
2014-Nov-30 07:31N 29°44' W 095°13'0 0.0
2014-Nov-30 06:31N 29°44' W 095°13'0 0.0
2014-Nov-30 05:31N 29°44' W 095°13'0 0.0
2014-Nov-30 04:31N 29°44' W 095°13'0 0.0
2014-Nov-30 03:31N 29°44' W 095°13'0 0.0
2014-Nov-30 02:31N 29°44' W 095°13'0 0.0
2014-Nov-30 01:31N 29°44' W 095°13'0 0.0
2014-Nov-30 00:31N 29°44' W 095°13'0 0.0
2014-Nov-29 23:31N 29°44' W 095°13'0 0.0
2014-Nov-29 22:31N 29°44' W 095°13'0 0.0
2014-Nov-29 21:33N 29°44' W 095°13'1 1.0
2014-Nov-29 20:33N 29°44' W 095°12'6 6.3
2014-Nov-29 19:33N 29°46' W 095°05'9 8.8
2014-Nov-29 18:33N 29°39' W 094°58'1212.1
2014-Nov-29 17:33N 29°29' W 094°52'  
Track history (hours):
 
Tides and Currents Weather Stations Pressure Air Temp Water Temp Dewpoint Dewpoint Depression Visibility Wind Speed Wind Dir Waves Ship Positions

Overseas Milos

Last reported at 2014-Dec-02 19:27 UTC. Time now 2014-Dec-21 23:56 UTC.
Position N 29°27' W 094°50'.
Warning: this ship's position is 19 days out of date.

Length 183 m; draft 9.6 m.

Type: Tanker. MMSI: 538004376.

Date/timePositionNaut miles runAvg speedWind from/ knotsBaromVisibWave heightAir tempDewpointWater temp
2014-Dec-02 19:27N 29°27' W 094°50'910.6
2014-Dec-02 18:33N 29°35' W 094°56'10 9.6
2014-Dec-02 17:33N 29°43' W 095°01'6 6.3
2014-Dec-02 16:33N 29°44' W 095°08'4 4.2
2014-Dec-02 15:33N 29°44' W 095°13'0 0.0
2014-Dec-02 14:25N 29°44' W 095°13'0 0.0
2014-Dec-01 21:31N 29°44' W 095°13'0 0.0
2014-Dec-01 20:31N 29°44' W 095°13'0 0.0
2014-Dec-01 19:31N 29°44' W 095°13'0 0.0
2014-Dec-01 18:31N 29°44' W 095°13'0 0.0
2014-Dec-01 17:31N 29°44' W 095°13'0 0.0
2014-Dec-01 16:31N 29°44' W 095°13'0 0.0
2014-Dec-01 15:31N 29°44' W 095°13'0 0.0
2014-Dec-01 14:31N 29°44' W 095°13'0 0.0
2014-Dec-01 13:31N 29°44' W 095°13'0 0.0
2014-Dec-01 12:31N 29°44' W 095°13'0 0.0
2014-Dec-01 11:31N 29°44' W 095°13'0 0.0
2014-Dec-01 10:31N 29°44' W 095°13'0 0.0
2014-Dec-01 09:31N 29°44' W 095°13'0 0.0
2014-Dec-01 08:31N 29°44' W 095°13'0 0.0
2014-Dec-01 07:31N 29°44' W 095°13'0 0.0
2014-Dec-01 06:31N 29°44' W 095°13'0 0.0
2014-Dec-01 05:31N 29°44' W 095°13'0 0.0
2014-Dec-01 04:31N 29°44' W 095°13'0 0.0
2014-Dec-01 03:31N 29°44' W 095°13'0 0.0
2014-Dec-01 02:31N 29°44' W 095°13'0 0.0
2014-Dec-01 01:31N 29°44' W 095°13'0 0.0
2014-Dec-01 00:31N 29°44' W 095°13'0 0.0
2014-Nov-30 23:31N 29°44' W 095°13'0 0.0
2014-Nov-30 22:31N 29°44' W 095°13'0 0.0
2014-Nov-30 21:31N 29°44' W 095°13'0 0.0
2014-Nov-30 20:31N 29°44' W 095°13'0 0.0
2014-Nov-30 19:31N 29°44' W 095°13'0 0.0
2014-Nov-30 18:31N 29°44' W 095°13'0 0.0
2014-Nov-30 17:31N 29°44' W 095°13'0 0.0
2014-Nov-30 16:31N 29°44' W 095°13'0 0.0
2014-Nov-30 15:31N 29°44' W 095°13'0 0.0
2014-Nov-30 14:31N 29°44' W 095°13'0 0.0
2014-Nov-30 13:31N 29°44' W 095°13'0 0.0
2014-Nov-30 12:31N 29°44' W 095°13'0 0.0
2014-Nov-30 11:31N 29°44' W 095°13'0 0.0
2014-Nov-30 10:31N 29°44' W 095°13'0 0.0
2014-Nov-30 09:31N 29°44' W 095°13'0 0.0
2014-Nov-30 08:31N 29°44' W 095°13'0 0.0
2014-Nov-30 07:31N 29°44' W 095°13'0 0.0
2014-Nov-30 06:31N 29°44' W 095°13'0 0.0
2014-Nov-30 05:31N 29°44' W 095°13'0 0.0
2014-Nov-30 04:31N 29°44' W 095°13'0 0.0
2014-Nov-30 03:31N 29°44' W 095°13'0 0.0
2014-Nov-30 02:31N 29°44' W 095°13'0 0.0
2014-Nov-30 01:31N 29°44' W 095°13'0 0.0
2014-Nov-30 00:31N 29°44' W 095°13'0 0.0
2014-Nov-29 23:31N 29°44' W 095°13'0 0.0
2014-Nov-29 22:31N 29°44' W 095°13'0 0.0
2014-Nov-29 21:33N 29°44' W 095°13'1 1.0
2014-Nov-29 20:33N 29°44' W 095°12'6 6.3
2014-Nov-29 19:33N 29°46' W 095°05'9 8.8
2014-Nov-29 18:33N 29°39' W 094°58'1212.1
2014-Nov-29 17:33N 29°29' W 094°52'  

Dump ship's entire track history